sensor_id;sensor_type;location;lat;lon;timestamp;P1;durP1;ratioP1;P2;durP2;ratioP2
17725;SDS011;8983;53.156;17.960;2023-08-08T00:00:45;7.87;;;2.43;;
17725;SDS011;8983;53.156;17.960;2023-08-08T00:03:15;6.30;;;2.07;;
17725;SDS011;8983;53.156;17.960;2023-08-08T00:05:43;6.67;;;2.37;;
17725;SDS011;8983;53.156;17.960;2023-08-08T00:08:11;3.53;;;2.30;;
17725;SDS011;8983;53.156;17.960;2023-08-08T00:10:39;5.83;;;2.00;;
17725;SDS011;8983;53.156;17.960;2023-08-08T00:13:07;2.73;;;1.90;;
17725;SDS011;8983;53.156;17.960;2023-08-08T00:15:35;5.63;;;2.50;;
17725;SDS011;8983;53.156;17.960;2023-08-08T00:18:04;7.73;;;2.60;;
17725;SDS011;8983;53.156;17.960;2023-08-08T00:20:33;7.83;;;2.30;;
17725;SDS011;8983;53.156;17.960;2023-08-08T00:23:02;5.57;;;2.07;;
17725;SDS011;8983;53.156;17.960;2023-08-08T00:25:30;5.33;;;2.07;;
17725;SDS011;8983;53.156;17.960;2023-08-08T00:27:58;5.00;;;2.13;;
17725;SDS011;8983;53.156;17.960;2023-08-08T00:30:26;7.63;;;2.50;;
17725;SDS011;8983;53.156;17.960;2023-08-08T00:32:54;6.60;;;2.53;;
17725;SDS011;8983;53.156;17.960;2023-08-08T00:35:22;7.43;;;2.20;;
17725;SDS011;8983;53.156;17.960;2023-08-08T00:37:52;5.83;;;2.10;;
17725;SDS011;8983;53.156;17.960;2023-08-08T00:40:20;5.93;;;2.20;;
17725;SDS011;8983;53.156;17.960;2023-08-08T00:42:48;4.30;;;2.27;;
17725;SDS011;8983;53.156;17.960;2023-08-08T00:45:16;5.00;;;1.83;;
17725;SDS011;8983;53.156;17.960;2023-08-08T00:47:44;4.83;;;2.23;;
17725;SDS011;8983;53.156;17.960;2023-08-08T00:50:12;4.03;;;2.20;;
17725;SDS011;8983;53.156;17.960;2023-08-08T00:52:41;4.57;;;2.27;;
17725;SDS011;8983;53.156;17.960;2023-08-08T00:55:12;4.60;;;2.23;;
17725;SDS011;8983;53.156;17.960;2023-08-08T00:57:41;5.50;;;2.40;;
17725;SDS011;8983;53.156;17.960;2023-08-08T01:00:09;5.13;;;2.50;;
17725;SDS011;8983;53.156;17.960;2023-08-08T01:02:38;8.20;;;2.50;;
17725;SDS011;8983;53.156;17.960;2023-08-08T01:05:06;5.43;;;2.20;;
17725;SDS011;8983;53.156;17.960;2023-08-08T01:07:36;7.30;;;2.10;;
17725;SDS011;8983;53.156;17.960;2023-08-08T01:10:09;4.43;;;2.40;;
17725;SDS011;8983;53.156;17.960;2023-08-08T01:12:41;3.93;;;2.30;;
17725;SDS011;8983;53.156;17.960;2023-08-08T01:15:13;3.03;;;2.20;;
17725;SDS011;8983;53.156;17.960;2023-08-08T01:17:42;4.23;;;2.50;;
17725;SDS011;8983;53.156;17.960;2023-08-08T01:20:13;5.13;;;2.40;;
17725;SDS011;8983;53.156;17.960;2023-08-08T01:22:45;5.33;;;2.60;;
17725;SDS011;8983;53.156;17.960;2023-08-08T01:25:24;8.17;;;2.17;;
17725;SDS011;8983;53.156;17.960;2023-08-08T01:27:52;6.70;;;2.27;;
17725;SDS011;8983;53.156;17.960;2023-08-08T01:30:21;6.50;;;2.40;;
17725;SDS011;8983;53.156;17.960;2023-08-08T01:32:49;4.20;;;1.93;;
17725;SDS011;8983;53.156;17.960;2023-08-08T01:35:17;3.40;;;2.10;;
17725;SDS011;8983;53.156;17.960;2023-08-08T01:37:46;7.40;;;2.37;;
17725;SDS011;8983;53.156;17.960;2023-08-08T01:40:17;7.97;;;2.50;;
17725;SDS011;8983;53.156;17.960;2023-08-08T01:42:47;5.40;;;2.23;;
17725;SDS011;8983;53.156;17.960;2023-08-08T01:45:16;1.80;;;1.63;;
17725;SDS011;8983;53.156;17.960;2023-08-08T01:47:48;5.47;;;2.40;;
17725;SDS011;8983;53.156;17.960;2023-08-08T01:50:17;6.60;;;2.13;;
17725;SDS011;8983;53.156;17.960;2023-08-08T01:52:47;7.70;;;2.30;;
17725;SDS011;8983;53.156;17.960;2023-08-08T01:55:15;3.70;;;2.13;;
17725;SDS011;8983;53.156;17.960;2023-08-08T01:57:44;4.10;;;1.97;;
17725;SDS011;8983;53.156;17.960;2023-08-08T02:00:13;6.37;;;1.93;;
17725;SDS011;8983;53.156;17.960;2023-08-08T02:02:42;5.43;;;1.93;;
17725;SDS011;8983;53.156;17.960;2023-08-08T02:05:10;5.00;;;2.00;;
17725;SDS011;8983;53.156;17.960;2023-08-08T02:07:39;3.93;;;2.00;;
17725;SDS011;8983;53.156;17.960;2023-08-08T02:10:07;4.53;;;2.30;;
17725;SDS011;8983;53.156;17.960;2023-08-08T02:12:36;6.17;;;2.10;;
17725;SDS011;8983;53.156;17.960;2023-08-08T02:15:04;5.03;;;2.20;;
17725;SDS011;8983;53.156;17.960;2023-08-08T02:17:35;5.10;;;2.40;;
17725;SDS011;8983;53.156;17.960;2023-08-08T02:20:05;3.97;;;2.03;;
17725;SDS011;8983;53.156;17.960;2023-08-08T02:22:34;7.87;;;2.43;;
17725;SDS011;8983;53.156;17.960;2023-08-08T02:25:02;4.17;;;2.00;;
17725;SDS011;8983;53.156;17.960;2023-08-08T02:27:33;4.10;;;2.07;;
17725;SDS011;8983;53.156;17.960;2023-08-08T02:30:01;3.20;;;1.83;;
17725;SDS011;8983;53.156;17.960;2023-08-08T02:32:30;6.97;;;2.10;;
17725;SDS011;8983;53.156;17.960;2023-08-08T02:35:00;5.00;;;1.97;;
17725;SDS011;8983;53.156;17.960;2023-08-08T02:37:28;5.40;;;2.10;;
17725;SDS011;8983;53.156;17.960;2023-08-08T02:39:56;5.47;;;2.30;;
17725;SDS011;8983;53.156;17.960;2023-08-08T02:42:24;2.47;;;1.97;;
17725;SDS011;8983;53.156;17.960;2023-08-08T02:44:52;5.93;;;2.20;;
17725;SDS011;8983;53.156;17.960;2023-08-08T02:47:20;4.70;;;2.00;;
17725;SDS011;8983;53.156;17.960;2023-08-08T02:49:48;5.37;;;1.90;;
17725;SDS011;8983;53.156;17.960;2023-08-08T02:52:17;2.73;;;1.90;;
17725;SDS011;8983;53.156;17.960;2023-08-08T02:54:45;3.93;;;2.20;;
17725;SDS011;8983;53.156;17.960;2023-08-08T02:57:13;5.47;;;2.47;;
17725;SDS011;8983;53.156;17.960;2023-08-08T02:59:42;6.93;;;2.77;;
17725;SDS011;8983;53.156;17.960;2023-08-08T03:02:10;4.27;;;2.20;;
17725;SDS011;8983;53.156;17.960;2023-08-08T03:04:38;6.97;;;2.40;;
17725;SDS011;8983;53.156;17.960;2023-08-08T03:07:06;4.97;;;2.37;;
17725;SDS011;8983;53.156;17.960;2023-08-08T03:09:36;5.27;;;2.30;;
17725;SDS011;8983;53.156;17.960;2023-08-08T03:12:05;3.17;;;2.10;;
17725;SDS011;8983;53.156;17.960;2023-08-08T03:14:33;3.03;;;1.77;;
17725;SDS011;8983;53.156;17.960;2023-08-08T03:17:01;6.57;;;2.30;;
17725;SDS011;8983;53.156;17.960;2023-08-08T03:19:30;4.27;;;2.40;;
17725;SDS011;8983;53.156;17.960;2023-08-08T03:21:58;6.20;;;2.23;;
17725;SDS011;8983;53.156;17.960;2023-08-08T03:24:26;3.13;;;1.90;;
17725;SDS011;8983;53.156;17.960;2023-08-08T03:26:56;5.70;;;2.23;;
17725;SDS011;8983;53.156;17.960;2023-08-08T03:29:24;5.47;;;2.60;;
17725;SDS011;8983;53.156;17.960;2023-08-08T03:31:52;3.70;;;1.97;;
17725;SDS011;8983;53.156;17.960;2023-08-08T03:34:20;5.47;;;2.20;;
17725;SDS011;8983;53.156;17.960;2023-08-08T03:36:49;4.60;;;2.40;;
17725;SDS011;8983;53.156;17.960;2023-08-08T03:39:17;5.40;;;2.17;;
17725;SDS011;8983;53.156;17.960;2023-08-08T03:41:45;4.67;;;2.60;;
17725;SDS011;8983;53.156;17.960;2023-08-08T03:44:14;8.07;;;2.50;;
17725;SDS011;8983;53.156;17.960;2023-08-08T03:46:42;7.60;;;2.20;;
17725;SDS011;8983;53.156;17.960;2023-08-08T03:49:10;4.47;;;2.10;;
17725;SDS011;8983;53.156;17.960;2023-08-08T03:51:38;5.23;;;2.10;;
17725;SDS011;8983;53.156;17.960;2023-08-08T03:54:07;4.93;;;2.10;;
17725;SDS011;8983;53.156;17.960;2023-08-08T03:56:35;3.60;;;2.23;;
17725;SDS011;8983;53.156;17.960;2023-08-08T03:59:03;4.73;;;2.07;;
17725;SDS011;8983;53.156;17.960;2023-08-08T04:01:33;4.73;;;2.27;;
17725;SDS011;8983;53.156;17.960;2023-08-08T04:04:01;4.23;;;2.13;;
17725;SDS011;8983;53.156;17.960;2023-08-08T04:06:29;4.63;;;2.33;;
17725;SDS011;8983;53.156;17.960;2023-08-08T04:08:57;2.90;;;2.20;;
17725;SDS011;8983;53.156;17.960;2023-08-08T04:11:27;3.10;;;2.13;;
17725;SDS011;8983;53.156;17.960;2023-08-08T04:13:55;5.43;;;2.17;;
17725;SDS011;8983;53.156;17.960;2023-08-08T04:16:23;5.30;;;1.77;;
17725;SDS011;8983;53.156;17.960;2023-08-08T04:18:53;4.23;;;2.20;;
17725;SDS011;8983;53.156;17.960;2023-08-08T04:21:21;6.07;;;2.30;;
17725;SDS011;8983;53.156;17.960;2023-08-08T04:23:51;4.80;;;2.60;;
17725;SDS011;8983;53.156;17.960;2023-08-08T04:26:19;2.77;;;2.10;;
17725;SDS011;8983;53.156;17.960;2023-08-08T04:28:47;3.53;;;1.90;;
17725;SDS011;8983;53.156;17.960;2023-08-08T04:31:15;2.43;;;1.80;;
17725;SDS011;8983;53.156;17.960;2023-08-08T04:33:43;6.87;;;2.13;;
17725;SDS011;8983;53.156;17.960;2023-08-08T04:36:13;4.77;;;2.07;;
17725;SDS011;8983;53.156;17.960;2023-08-08T04:38:41;6.77;;;2.23;;
17725;SDS011;8983;53.156;17.960;2023-08-08T04:41:09;4.40;;;2.03;;
17725;SDS011;8983;53.156;17.960;2023-08-08T04:43:37;5.87;;;2.20;;
17725;SDS011;8983;53.156;17.960;2023-08-08T04:46:05;4.73;;;2.17;;
17725;SDS011;8983;53.156;17.960;2023-08-08T04:48:33;5.63;;;1.87;;
17725;SDS011;8983;53.156;17.960;2023-08-08T04:51:01;4.30;;;2.13;;
17725;SDS011;8983;53.156;17.960;2023-08-08T04:53:30;4.63;;;1.80;;
17725;SDS011;8983;53.156;17.960;2023-08-08T04:55:59;4.53;;;1.90;;
17725;SDS011;8983;53.156;17.960;2023-08-08T04:58:27;4.77;;;1.80;;
17725;SDS011;8983;53.156;17.960;2023-08-08T05:00:55;6.33;;;2.20;;
17725;SDS011;8983;53.156;17.960;2023-08-08T05:03:23;4.73;;;2.07;;
17725;SDS011;8983;53.156;17.960;2023-08-08T05:05:51;4.13;;;2.00;;
17725;SDS011;8983;53.156;17.960;2023-08-08T05:08:19;3.87;;;1.70;;
17725;SDS011;8983;53.156;17.960;2023-08-08T05:10:49;3.57;;;2.10;;
17725;SDS011;8983;53.156;17.960;2023-08-08T05:13:17;2.63;;;1.77;;
17725;SDS011;8983;53.156;17.960;2023-08-08T05:15:45;3.37;;;1.83;;
17725;SDS011;8983;53.156;17.960;2023-08-08T05:18:13;3.13;;;1.67;;
17725;SDS011;8983;53.156;17.960;2023-08-08T05:20:41;4.00;;;1.87;;
17725;SDS011;8983;53.156;17.960;2023-08-08T05:23:09;2.90;;;1.73;;
17725;SDS011;8983;53.156;17.960;2023-08-08T05:25:37;1.60;;;1.50;;
17725;SDS011;8983;53.156;17.960;2023-08-08T05:28:07;7.47;;;1.80;;
17725;SDS011;8983;53.156;17.960;2023-08-08T05:30:35;3.47;;;1.93;;
17725;SDS011;8983;53.156;17.960;2023-08-08T05:33:03;2.30;;;1.80;;
17725;SDS011;8983;53.156;17.960;2023-08-08T05:35:31;7.13;;;1.87;;
17725;SDS011;8983;53.156;17.960;2023-08-08T05:37:59;3.07;;;1.63;;
17725;SDS011;8983;53.156;17.960;2023-08-08T05:40:27;3.23;;;1.73;;
17725;SDS011;8983;53.156;17.960;2023-08-08T05:42:55;4.70;;;1.97;;
17725;SDS011;8983;53.156;17.960;2023-08-08T05:45:25;2.67;;;1.97;;
17725;SDS011;8983;53.156;17.960;2023-08-08T05:47:53;4.77;;;2.00;;
17725;SDS011;8983;53.156;17.960;2023-08-08T05:50:22;3.00;;;1.90;;
17725;SDS011;8983;53.156;17.960;2023-08-08T05:52:51;3.87;;;1.80;;
17725;SDS011;8983;53.156;17.960;2023-08-08T05:55:19;3.97;;;2.00;;
17725;SDS011;8983;53.156;17.960;2023-08-08T05:57:47;4.60;;;1.80;;
17725;SDS011;8983;53.156;17.960;2023-08-08T06:00:16;3.50;;;1.70;;
17725;SDS011;8983;53.156;17.960;2023-08-08T06:02:46;2.03;;;1.70;;
17725;SDS011;8983;53.156;17.960;2023-08-08T06:05:16;5.00;;;2.00;;
17725;SDS011;8983;53.156;17.960;2023-08-08T06:07:44;5.10;;;2.00;;
17725;SDS011;8983;53.156;17.960;2023-08-08T06:10:13;3.47;;;1.73;;
17725;SDS011;8983;53.156;17.960;2023-08-08T06:12:41;4.10;;;1.80;;
17725;SDS011;8983;53.156;17.960;2023-08-08T06:15:09;2.17;;;1.50;;
17725;SDS011;8983;53.156;17.960;2023-08-08T06:17:37;2.23;;;1.60;;
17725;SDS011;8983;53.156;17.960;2023-08-08T06:20:07;3.47;;;1.90;;
17725;SDS011;8983;53.156;17.960;2023-08-08T06:22:37;3.57;;;2.20;;
17725;SDS011;8983;53.156;17.960;2023-08-08T06:25:05;3.93;;;1.90;;
17725;SDS011;8983;53.156;17.960;2023-08-08T06:27:34;5.93;;;1.93;;
17725;SDS011;8983;53.156;17.960;2023-08-08T06:30:03;2.00;;;1.90;;
17725;SDS011;8983;53.156;17.960;2023-08-08T06:32:32;3.63;;;1.70;;
17725;SDS011;8983;53.156;17.960;2023-08-08T06:35:00;3.77;;;1.90;;
17725;SDS011;8983;53.156;17.960;2023-08-08T06:37:29;2.43;;;1.60;;
17725;SDS011;8983;53.156;17.960;2023-08-08T06:39:58;2.07;;;1.47;;
17725;SDS011;8983;53.156;17.960;2023-08-08T06:42:26;1.97;;;1.57;;
17725;SDS011;8983;53.156;17.960;2023-08-08T06:44:54;3.27;;;1.70;;
17725;SDS011;8983;53.156;17.960;2023-08-08T06:47:22;3.00;;;1.50;;
17725;SDS011;8983;53.156;17.960;2023-08-08T06:49:50;3.23;;;1.77;;
17725;SDS011;8983;53.156;17.960;2023-08-08T06:52:18;1.90;;;1.50;;
17725;SDS011;8983;53.156;17.960;2023-08-08T06:54:48;3.03;;;1.70;;
17725;SDS011;8983;53.156;17.960;2023-08-08T06:57:16;2.23;;;1.43;;
17725;SDS011;8983;53.156;17.960;2023-08-08T06:59:44;1.43;;;1.17;;
17725;SDS011;8983;53.156;17.960;2023-08-08T07:02:16;2.43;;;1.53;;
17725;SDS011;8983;53.156;17.960;2023-08-08T07:04:45;4.20;;;1.40;;
17725;SDS011;8983;53.156;17.960;2023-08-08T07:07:13;2.30;;;1.50;;
17725;SDS011;8983;53.156;17.960;2023-08-08T07:09:41;3.03;;;1.93;;
17725;SDS011;8983;53.156;17.960;2023-08-08T07:12:11;3.70;;;1.63;;
17725;SDS011;8983;53.156;17.960;2023-08-08T07:14:39;5.00;;;1.80;;
17725;SDS011;8983;53.156;17.960;2023-08-08T07:17:07;2.63;;;1.73;;
17725;SDS011;8983;53.156;17.960;2023-08-08T07:19:36;2.63;;;1.40;;
17725;SDS011;8983;53.156;17.960;2023-08-08T07:22:05;1.90;;;1.70;;
17725;SDS011;8983;53.156;17.960;2023-08-08T07:24:34;3.17;;;1.73;;
17725;SDS011;8983;53.156;17.960;2023-08-08T07:27:02;4.60;;;1.87;;
17725;SDS011;8983;53.156;17.960;2023-08-08T07:29:32;6.33;;;1.83;;
17725;SDS011;8983;53.156;17.960;2023-08-08T07:32:02;2.30;;;1.63;;
17725;SDS011;8983;53.156;17.960;2023-08-08T07:34:31;3.30;;;1.67;;
17725;SDS011;8983;53.156;17.960;2023-08-08T07:36:59;2.23;;;1.60;;
17725;SDS011;8983;53.156;17.960;2023-08-08T07:39:28;4.20;;;1.83;;
17725;SDS011;8983;53.156;17.960;2023-08-08T07:41:56;1.93;;;1.53;;
17725;SDS011;8983;53.156;17.960;2023-08-08T07:44:25;3.17;;;1.50;;
17725;SDS011;8983;53.156;17.960;2023-08-08T07:46:54;3.17;;;1.60;;
17725;SDS011;8983;53.156;17.960;2023-08-08T07:49:22;1.93;;;1.70;;
17725;SDS011;8983;53.156;17.960;2023-08-08T07:51:50;3.17;;;1.50;;
17725;SDS011;8983;53.156;17.960;2023-08-08T07:54:18;2.23;;;1.40;;
17725;SDS011;8983;53.156;17.960;2023-08-08T07:56:46;3.07;;;1.83;;
17725;SDS011;8983;53.156;17.960;2023-08-08T07:59:14;2.87;;;1.57;;
17725;SDS011;8983;53.156;17.960;2023-08-08T08:01:43;1.93;;;1.57;;
17725;SDS011;8983;53.156;17.960;2023-08-08T08:04:13;1.73;;;1.60;;
17725;SDS011;8983;53.156;17.960;2023-08-08T08:06:41;1.50;;;1.40;;
17725;SDS011;8983;53.156;17.960;2023-08-08T08:09:10;1.67;;;1.57;;
17725;SDS011;8983;53.156;17.960;2023-08-08T08:11:39;3.50;;;1.80;;
17725;SDS011;8983;53.156;17.960;2023-08-08T08:14:07;3.13;;;1.67;;
17725;SDS011;8983;53.156;17.960;2023-08-08T08:16:35;2.20;;;1.60;;
17725;SDS011;8983;53.156;17.960;2023-08-08T08:19:04;5.73;;;1.73;;
17725;SDS011;8983;53.156;17.960;2023-08-08T08:21:34;4.23;;;1.90;;
17725;SDS011;8983;53.156;17.960;2023-08-08T08:24:02;2.93;;;1.90;;
17725;SDS011;8983;53.156;17.960;2023-08-08T08:26:30;4.10;;;1.70;;
17725;SDS011;8983;53.156;17.960;2023-08-08T08:28:59;3.10;;;1.60;;
17725;SDS011;8983;53.156;17.960;2023-08-08T08:31:27;2.03;;;1.63;;
17725;SDS011;8983;53.156;17.960;2023-08-08T08:33:56;3.63;;;1.77;;
17725;SDS011;8983;53.156;17.960;2023-08-08T08:36:24;4.00;;;1.90;;
17725;SDS011;8983;53.156;17.960;2023-08-08T08:38:53;2.90;;;1.70;;
17725;SDS011;8983;53.156;17.960;2023-08-08T08:41:24;1.60;;;1.50;;
17725;SDS011;8983;53.156;17.960;2023-08-08T08:43:53;1.90;;;1.60;;
17725;SDS011;8983;53.156;17.960;2023-08-08T08:46:22;4.03;;;1.70;;
17725;SDS011;8983;53.156;17.960;2023-08-08T08:48:54;2.73;;;1.70;;
17725;SDS011;8983;53.156;17.960;2023-08-08T08:51:22;1.93;;;1.20;;
17725;SDS011;8983;53.156;17.960;2023-08-08T08:53:51;2.10;;;1.80;;
17725;SDS011;8983;53.156;17.960;2023-08-08T08:56:21;2.90;;;1.57;;
17725;SDS011;8983;53.156;17.960;2023-08-08T08:58:50;3.37;;;2.13;;
17725;SDS011;8983;53.156;17.960;2023-08-08T09:01:18;2.77;;;1.97;;
17725;SDS011;8983;53.156;17.960;2023-08-08T09:03:46;4.20;;;1.70;;
17725;SDS011;8983;53.156;17.960;2023-08-08T09:06:15;2.53;;;1.60;;
17725;SDS011;8983;53.156;17.960;2023-08-08T09:08:45;2.27;;;1.70;;
17725;SDS011;8983;53.156;17.960;2023-08-08T09:11:17;2.40;;;1.90;;
17725;SDS011;8983;53.156;17.960;2023-08-08T09:13:45;1.40;;;1.30;;
17725;SDS011;8983;53.156;17.960;2023-08-08T09:16:13;3.23;;;1.73;;
17725;SDS011;8983;53.156;17.960;2023-08-08T09:18:42;3.60;;;2.13;;
17725;SDS011;8983;53.156;17.960;2023-08-08T09:21:10;2.80;;;1.73;;
17725;SDS011;8983;53.156;17.960;2023-08-08T09:23:39;3.10;;;1.77;;
17725;SDS011;8983;53.156;17.960;2023-08-08T09:26:09;3.77;;;1.63;;
17725;SDS011;8983;53.156;17.960;2023-08-08T09:28:41;5.93;;;1.73;;
17725;SDS011;8983;53.156;17.960;2023-08-08T09:31:11;4.87;;;2.10;;
17725;SDS011;8983;53.156;17.960;2023-08-08T09:33:39;1.93;;;1.77;;
17725;SDS011;8983;53.156;17.960;2023-08-08T09:36:07;1.63;;;1.50;;
17725;SDS011;8983;53.156;17.960;2023-08-08T09:38:40;1.73;;;1.63;;
17725;SDS011;8983;53.156;17.960;2023-08-08T09:41:08;3.90;;;2.00;;
17725;SDS011;8983;53.156;17.960;2023-08-08T09:43:37;2.47;;;1.50;;
17725;SDS011;8983;53.156;17.960;2023-08-08T09:46:07;2.60;;;1.80;;
17725;SDS011;8983;53.156;17.960;2023-08-08T09:48:36;4.63;;;1.80;;
17725;SDS011;8983;53.156;17.960;2023-08-08T09:51:06;2.47;;;1.60;;
17725;SDS011;8983;53.156;17.960;2023-08-08T09:53:35;2.67;;;1.80;;
17725;SDS011;8983;53.156;17.960;2023-08-08T09:56:04;1.93;;;1.40;;
17725;SDS011;8983;53.156;17.960;2023-08-08T09:58:34;1.73;;;1.50;;
17725;SDS011;8983;53.156;17.960;2023-08-08T10:01:02;5.43;;;1.90;;
17725;SDS011;8983;53.156;17.960;2023-08-08T10:03:32;2.13;;;1.67;;
17725;SDS011;8983;53.156;17.960;2023-08-08T10:06:03;3.23;;;1.77;;
17725;SDS011;8983;53.156;17.960;2023-08-08T10:08:31;2.10;;;1.90;;
17725;SDS011;8983;53.156;17.960;2023-08-08T10:10:59;2.10;;;1.90;;
17725;SDS011;8983;53.156;17.960;2023-08-08T10:13:28;2.70;;;1.60;;
17725;SDS011;8983;53.156;17.960;2023-08-08T10:15:57;6.50;;;1.63;;
17725;SDS011;8983;53.156;17.960;2023-08-08T10:18:32;2.50;;;1.70;;
17725;SDS011;8983;53.156;17.960;2023-08-08T10:21:03;3.87;;;1.93;;
17725;SDS011;8983;53.156;17.960;2023-08-08T10:23:35;1.90;;;1.70;;
17725;SDS011;8983;53.156;17.960;2023-08-08T10:26:05;1.53;;;1.40;;
17725;SDS011;8983;53.156;17.960;2023-08-08T10:28:52;2.10;;;1.30;;
17725;SDS011;8983;53.156;17.960;2023-08-08T10:31:24;3.03;;;1.63;;
17725;SDS011;8983;53.156;17.960;2023-08-08T10:34:02;3.33;;;1.57;;
17725;SDS011;8983;53.156;17.960;2023-08-08T10:36:44;2.60;;;1.43;;
17725;SDS011;8983;53.156;17.960;2023-08-08T10:39:16;4.20;;;1.47;;
17725;SDS011;8983;53.156;17.960;2023-08-08T10:41:45;1.63;;;1.40;;
17725;SDS011;8983;53.156;17.960;2023-08-08T10:44:20;4.90;;;1.50;;
17725;SDS011;8983;53.156;17.960;2023-08-08T10:46:50;3.80;;;1.43;;
17725;SDS011;8983;53.156;17.960;2023-08-08T10:49:20;3.80;;;1.57;;
17725;SDS011;8983;53.156;17.960;2023-08-08T10:51:49;2.00;;;1.77;;
17725;SDS011;8983;53.156;17.960;2023-08-08T10:54:18;2.83;;;1.50;;
17725;SDS011;8983;53.156;17.960;2023-08-08T10:56:49;4.00;;;1.63;;
17725;SDS011;8983;53.156;17.960;2023-08-08T10:59:19;2.00;;;1.70;;
17725;SDS011;8983;53.156;17.960;2023-08-08T11:01:50;1.47;;;1.10;;
17725;SDS011;8983;53.156;17.960;2023-08-08T11:04:22;1.53;;;1.33;;
17725;SDS011;8983;53.156;17.960;2023-08-08T11:06:52;3.77;;;1.70;;
17725;SDS011;8983;53.156;17.960;2023-08-08T11:09:21;1.67;;;1.20;;
17725;SDS011;8983;53.156;17.960;2023-08-08T11:11:49;2.93;;;1.40;;
17725;SDS011;8983;53.156;17.960;2023-08-08T11:14:18;3.23;;;1.43;;
17725;SDS011;8983;53.156;17.960;2023-08-08T11:16:48;2.60;;;1.50;;
17725;SDS011;8983;53.156;17.960;2023-08-08T11:19:18;2.83;;;1.30;;
17725;SDS011;8983;53.156;17.960;2023-08-08T11:21:49;2.83;;;1.77;;
17725;SDS011;8983;53.156;17.960;2023-08-08T11:24:17;3.57;;;1.43;;
17725;SDS011;8983;53.156;17.960;2023-08-08T11:26:46;2.10;;;1.70;;
17725;SDS011;8983;53.156;17.960;2023-08-08T11:29:14;2.03;;;1.40;;
17725;SDS011;8983;53.156;17.960;2023-08-08T11:31:42;1.90;;;1.70;;
17725;SDS011;8983;53.156;17.960;2023-08-08T11:34:11;1.70;;;1.33;;
17725;SDS011;8983;53.156;17.960;2023-08-08T11:36:44;1.70;;;1.40;;
17725;SDS011;8983;53.156;17.960;2023-08-08T11:39:13;1.37;;;1.27;;
17725;SDS011;8983;53.156;17.960;2023-08-08T11:41:42;1.90;;;1.33;;
17725;SDS011;8983;53.156;17.960;2023-08-08T11:44:11;1.27;;;1.17;;
17725;SDS011;8983;53.156;17.960;2023-08-08T11:46:43;1.33;;;1.23;;
17725;SDS011;8983;53.156;17.960;2023-08-08T11:49:13;2.20;;;1.30;;
17725;SDS011;8983;53.156;17.960;2023-08-08T11:51:42;1.53;;;1.40;;
17725;SDS011;8983;53.156;17.960;2023-08-08T11:54:12;1.23;;;1.13;;
17725;SDS011;8983;53.156;17.960;2023-08-08T11:56:41;3.72;;;1.60;;
17725;SDS011;8983;53.156;17.960;2023-08-08T11:59:09;3.33;;;1.33;;
17725;SDS011;8983;53.156;17.960;2023-08-08T12:01:38;1.53;;;1.30;;
17725;SDS011;8983;53.156;17.960;2023-08-08T12:04:09;3.17;;;1.30;;
17725;SDS011;8983;53.156;17.960;2023-08-08T12:06:37;3.83;;;1.40;;
17725;SDS011;8983;53.156;17.960;2023-08-08T12:09:07;1.42;;;1.20;;
17725;SDS011;8983;53.156;17.960;2023-08-08T12:11:39;3.05;;;1.52;;
17725;SDS011;8983;53.156;17.960;2023-08-08T12:14:08;1.13;;;1.02;;
17725;SDS011;8983;53.156;17.960;2023-08-08T12:16:37;3.08;;;1.20;;
17725;SDS011;8983;53.156;17.960;2023-08-08T12:19:06;1.85;;;1.23;;
17725;SDS011;8983;53.156;17.960;2023-08-08T12:21:37;4.00;;;1.17;;
17725;SDS011;8983;53.156;17.960;2023-08-08T12:24:05;1.52;;;1.30;;
17725;SDS011;8983;53.156;17.960;2023-08-08T12:26:35;1.95;;;1.00;;
17725;SDS011;8983;53.156;17.960;2023-08-08T12:29:04;1.45;;;1.35;;
17725;SDS011;8983;53.156;17.960;2023-08-08T12:31:32;1.20;;;1.10;;
17725;SDS011;8983;53.156;17.960;2023-08-08T12:34:01;1.25;;;1.10;;
17725;SDS011;8983;53.156;17.960;2023-08-08T12:36:29;1.05;;;0.98;;
17725;SDS011;8983;53.156;17.960;2023-08-08T12:38:57;2.50;;;1.00;;
17725;SDS011;8983;53.156;17.960;2023-08-08T12:41:27;2.80;;;1.40;;
17725;SDS011;8983;53.156;17.960;2023-08-08T12:43:56;2.38;;;1.33;;
17725;SDS011;8983;53.156;17.960;2023-08-08T12:46:24;2.00;;;1.25;;
17725;SDS011;8983;53.156;17.960;2023-08-08T12:48:52;2.95;;;1.30;;
17725;SDS011;8983;53.156;17.960;2023-08-08T12:51:20;1.48;;;1.35;;
17725;SDS011;8983;53.156;17.960;2023-08-08T12:53:48;4.20;;;0.95;;
17725;SDS011;8983;53.156;17.960;2023-08-08T12:56:17;1.50;;;1.38;;
17725;SDS011;8983;53.156;17.960;2023-08-08T12:58:46;1.08;;;1.08;;
17725;SDS011;8983;53.156;17.960;2023-08-08T13:01:14;2.05;;;1.30;;
17725;SDS011;8983;53.156;17.960;2023-08-08T13:03:42;1.20;;;0.95;;
17725;SDS011;8983;53.156;17.960;2023-08-08T13:06:21;1.20;;;1.10;;
17725;SDS011;8983;53.156;17.960;2023-08-08T13:08:49;2.10;;;1.10;;
17725;SDS011;8983;53.156;17.960;2023-08-08T13:11:17;1.47;;;1.20;;
17725;SDS011;8983;53.156;17.960;2023-08-08T13:13:46;2.03;;;1.40;;
17725;SDS011;8983;53.156;17.960;2023-08-08T13:16:14;6.97;;;1.65;;
17725;SDS011;8983;53.156;17.960;2023-08-08T13:18:43;2.37;;;1.40;;
17725;SDS011;8983;53.156;17.960;2023-08-08T13:21:11;1.70;;;1.60;;
17725;SDS011;8983;53.156;17.960;2023-08-08T13:23:40;1.10;;;1.10;;
17725;SDS011;8983;53.156;17.960;2023-08-08T13:26:08;1.70;;;1.60;;
17725;SDS011;8983;53.156;17.960;2023-08-08T13:28:36;2.23;;;1.60;;
17725;SDS011;8983;53.156;17.960;2023-08-08T13:31:06;1.70;;;1.60;;
17725;SDS011;8983;53.156;17.960;2023-08-08T13:33:34;2.57;;;1.73;;
17725;SDS011;8983;53.156;17.960;2023-08-08T13:36:03;4.80;;;1.77;;
17725;SDS011;8983;53.156;17.960;2023-08-08T13:38:31;3.43;;;1.97;;
17725;SDS011;8983;53.156;17.960;2023-08-08T13:40:59;4.30;;;1.70;;
17725;SDS011;8983;53.156;17.960;2023-08-08T13:43:27;3.33;;;1.43;;
17725;SDS011;8983;53.156;17.960;2023-08-08T13:45:56;1.70;;;1.27;;
17725;SDS011;8983;53.156;17.960;2023-08-08T13:48:26;4.07;;;2.00;;
17725;SDS011;8983;53.156;17.960;2023-08-08T13:50:54;1.70;;;1.60;;
17725;SDS011;8983;53.156;17.960;2023-08-08T13:53:22;2.37;;;1.60;;
17725;SDS011;8983;53.156;17.960;2023-08-08T13:55:50;1.53;;;1.43;;
17725;SDS011;8983;53.156;17.960;2023-08-08T13:58:18;3.13;;;1.60;;
17725;SDS011;8983;53.156;17.960;2023-08-08T14:00:48;2.83;;;1.70;;
17725;SDS011;8983;53.156;17.960;2023-08-08T14:03:16;1.67;;;1.57;;
17725;SDS011;8983;53.156;17.960;2023-08-08T14:05:46;1.67;;;1.57;;
17725;SDS011;8983;53.156;17.960;2023-08-08T14:08:14;2.87;;;1.60;;
17725;SDS011;8983;53.156;17.960;2023-08-08T14:10:42;2.78;;;1.33;;
17725;SDS011;8983;53.156;17.960;2023-08-08T14:13:10;1.70;;;1.48;;
17725;SDS011;8983;53.156;17.960;2023-08-08T14:15:38;2.35;;;1.50;;
17725;SDS011;8983;53.156;17.960;2023-08-08T14:18:07;2.53;;;1.50;;
17725;SDS011;8983;53.156;17.960;2023-08-08T14:20:35;1.95;;;1.73;;
17725;SDS011;8983;53.156;17.960;2023-08-08T14:23:05;1.98;;;1.40;;
17725;SDS011;8983;53.156;17.960;2023-08-08T14:25:33;1.48;;;1.20;;
17725;SDS011;8983;53.156;17.960;2023-08-08T14:28:02;2.70;;;1.58;;
17725;SDS011;8983;53.156;17.960;2023-08-08T14:30:30;1.30;;;1.20;;
17725;SDS011;8983;53.156;17.960;2023-08-08T14:32:58;1.52;;;1.10;;
17725;SDS011;8983;53.156;17.960;2023-08-08T14:35:26;1.75;;;1.10;;
17725;SDS011;8983;53.156;17.960;2023-08-08T14:37:55;1.48;;;1.10;;
17725;SDS011;8983;53.156;17.960;2023-08-08T14:40:24;1.65;;;1.10;;
17725;SDS011;8983;53.156;17.960;2023-08-08T14:42:52;1.05;;;0.95;;
17725;SDS011;8983;53.156;17.960;2023-08-08T14:45:22;1.35;;;1.10;;
17725;SDS011;8983;53.156;17.960;2023-08-08T14:47:50;2.25;;;1.05;;
17725;SDS011;8983;53.156;17.960;2023-08-08T14:50:18;1.38;;;1.27;;
17725;SDS011;8983;53.156;17.960;2023-08-08T14:52:46;1.40;;;1.20;;
17725;SDS011;8983;53.156;17.960;2023-08-08T14:55:14;1.95;;;1.40;;
17725;SDS011;8983;53.156;17.960;2023-08-08T14:57:44;1.43;;;1.17;;